Time;durP1;ratioP1;P1;durP2;ratioP2;P2;SDS_P1;SDS_P2;PMS_P1;PMS_P2;Temp;Humidity;BMP_temperature;BMP_pressure;BME280_temperature;BME280_humidity;BME280_pressure;Samples;Min_cycle;Max_cycle;Signal;HPM_P1;HPM_P2
2022/08/25 00:01:39;;;;;;;15.80;14.10;;;;;;;;;;5071111;28;20426;-73
2022/08/25 00:04:09;;;;;;;14.87;13.47;;;;;;;;;;5053278;28;20463;-74
2022/08/25 00:06:40;;;;;;;18.40;14.60;;;;;;;;;;5053034;28;20428;-74
2022/08/25 00:09:08;;;;;;;15.73;13.93;;;;;;;;;;5070819;28;20455;-74
2022/08/25 00:11:36;;;;;;;16.30;14.70;;;;;;;;;;5036514;28;20447;-75
2022/08/25 00:14:05;;;;;;;16.57;14.90;;;;;;;;;;5053051;28;20466;-74
2022/08/25 00:16:33;;;;;;;15.37;13.83;;;;;;;;;;5073426;28;20487;-74
2022/08/25 00:19:02;;;;;;;17.63;14.20;;;;;;;;;;5039947;28;20487;-74
2022/08/25 00:21:30;;;;;;;15.77;13.83;;;;;;;;;;5026722;28;20515;-74
2022/08/25 00:23:57;;;;;;;16.33;13.43;;;;;;;;;;5040032;28;20523;-74
2022/08/25 00:26:26;;;;;;;15.47;13.80;;;;;;;;;;5056655;28;20811;-74
2022/08/25 00:28:53;;;;;;;14.87;13.37;;;;;;;;;;5039828;28;22294;-74
2022/08/25 00:31:23;;;;;;;15.57;13.97;;;;;;;;;;5056303;28;20527;-74
2022/08/25 00:34:06;;;;;;;19.63;13.30;;;;;;;;;;5056236;28;20436;-74
2022/08/25 00:36:33;;;;;;;15.13;13.50;;;;;;;;;;5056466;28;20456;-74
2022/08/25 00:38:59;;;;;;;19.17;15.47;;;;;;;;;;5039995;28;20455;-74
2022/08/25 00:41:26;;;;;;;19.83;14.40;;;;;;;;;;5056386;28;20911;-74
2022/08/25 00:43:57;;;;;;;16.87;14.80;;;;;;;;;;5054440;28;20444;-74
2022/08/25 00:46:26;;;;;;;17.07;15.20;;;;;;;;;;5056420;28;20881;-74
2022/08/25 00:48:56;;;;;;;18.30;14.40;;;;;;;;;;5039524;28;20932;-74
2022/08/25 00:51:39;;;;;;;18.03;16.10;;;;;;;;;;5039610;28;20436;-74
2022/08/25 00:54:06;;;;;;;18.87;16.97;;;;;;;;;;5074023;28;20420;-74
2022/08/25 00:56:34;;;;;;;19.17;15.47;;;;;;;;;;5026741;28;20602;-74
2022/08/25 00:59:01;;;;;;;20.80;15.70;;;;;;;;;;5035724;28;20466;-74
2022/08/25 01:01:29;;;;;;;19.73;17.57;;;;;;;;;;5049501;28;20447;-73
2022/08/25 01:03:56;;;;;;;21.37;19.27;;;;;;;;;;5043269;28;20940;-73
2022/08/25 01:06:22;;;;;;;18.97;17.07;;;;;;;;;;5035735;28;20482;-73
2022/08/25 01:08:50;;;;;;;21.03;18.70;;;;;;;;;;5039180;28;21012;-74
2022/08/25 01:11:17;;;;;;;21.40;19.07;;;;;;;;;;5039326;28;20531;-73
2022/08/25 01:13:49;;;;;;;19.10;17.10;;;;;;;;;;5056656;28;20416;-74
2022/08/25 01:16:16;;;;;;;20.83;17.10;;;;;;;;;;5055523;28;21044;-74
2022/08/25 01:18:45;;;;;;;17.73;15.93;;;;;;;;;;5074050;28;20435;-73
2022/08/25 01:21:12;;;;;;;17.77;15.47;;;;;;;;;;5055307;28;20429;-73
2022/08/25 01:23:38;;;;;;;17.53;15.57;;;;;;;;;;5055365;28;20532;-74
2022/08/25 01:26:18;;;;;;;17.63;15.93;;;;;;;;;;5054925;28;20468;-74
2022/08/25 01:31:41;;;;;;;17.33;15.53;;;;;;;;;;5061114;28;20426;-74
2022/08/25 01:34:11;;;;;;;19.10;14.80;;;;;;;;;;5055600;28;20969;-74
2022/08/25 01:36:38;;;;;;;15.10;13.00;;;;;;;;;;5046764;28;20466;-74
2022/08/25 01:39:04;;;;;;;16.30;14.77;;;;;;;;;;5038124;28;20505;-73
2022/08/25 01:41:39;;;;;;;15.70;14.17;;;;;;;;;;5055103;28;20429;-73
2022/08/25 01:44:06;;;;;;;15.47;13.97;;;;;;;;;;5055264;28;20759;-73
2022/08/25 01:46:41;;;;;;;16.20;13.03;;;;;;;;;;5055070;28;20440;-73
2022/08/25 01:49:07;;;;;;;14.70;13.30;;;;;;;;;;5055035;28;20460;-73
2022/08/25 01:51:41;;;;;;;15.20;13.70;;;;;;;;;;5054820;28;20440;-73
2022/08/25 01:54:07;;;;;;;15.33;13.97;;;;;;;;;;5055034;28;20891;-73
2022/08/25 01:56:34;;;;;;;15.70;14.20;;;;;;;;;;5038451;28;20499;-74
2022/08/25 01:59:01;;;;;;;16.10;14.50;;;;;;;;;;5072738;28;20815;-74
2022/08/25 02:01:27;;;;;;;17.83;13.80;;;;;;;;;;5072603;28;20420;-73
2022/08/25 02:03:55;;;;;;;14.80;13.30;;;;;;;;;;5038472;28;20439;-74
2022/08/25 02:06:28;;;;;;;18.53;14.07;;;;;;;;;;5054616;28;20519;-74
2022/08/25 02:08:57;;;;;;;15.87;14.30;;;;;;;;;;5034529;28;20450;-74
2022/08/25 02:11:24;;;;;;;14.93;13.40;;;;;;;;;;5054503;28;20428;-73
2022/08/25 02:13:54;;;;;;;20.53;15.47;;;;;;;;;;5072669;28;20438;-73
2022/08/25 02:16:27;;;;;;;16.77;14.47;;;;;;;;;;5037792;28;20468;-74
2022/08/25 02:18:54;;;;;;;14.43;13.03;;;;;;;;;;5054736;28;20523;-74
2022/08/25 02:21:21;;;;;;;15.33;13.83;;;;;;;;;;5054223;28;20436;-73
2022/08/25 02:23:48;;;;;;;13.53;12.23;;;;;;;;;;5054165;28;20420;-73
2022/08/25 02:26:17;;;;;;;15.73;14.23;;;;;;;;;;5072172;28;20798;-73
2022/08/25 02:28:45;;;;;;;15.17;13.77;;;;;;;;;;5054080;28;20471;-73
2022/08/25 02:31:13;;;;;;;14.63;13.13;;;;;;;;;;5053988;28;20472;-73
2022/08/25 02:33:39;;;;;;;14.13;12.70;;;;;;;;;;5037703;28;20443;-73
2022/08/25 02:36:06;;;;;;;14.10;12.70;;;;;;;;;;5037610;28;20465;-73
2022/08/25 02:38:33;;;;;;;16.07;12.40;;;;;;;;;;5053278;28;20452;-73
2022/08/25 02:41:00;;;;;;;13.83;12.53;;;;;;;;;;5053824;28;20490;-73
2022/08/25 02:43:27;;;;;;;16.17;13.53;;;;;;;;;;5025929;28;20430;-73
2022/08/25 02:45:55;;;;;;;17.80;12.80;;;;;;;;;;5037417;28;20432;-73
2022/08/25 02:48:22;;;;;;;15.93;14.43;;;;;;;;;;5054126;28;20435;-73
2022/08/25 02:50:52;;;;;;;14.10;12.70;;;;;;;;;;5056535;28;20547;-73
2022/08/25 02:53:19;;;;;;;13.60;12.30;;;;;;;;;;5043471;28;20448;-73
2022/08/25 02:55:46;;;;;;;16.10;12.73;;;;;;;;;;5056097;28;20518;-70
2022/08/25 02:58:13;;;;;;;15.20;13.60;;;;;;;;;;5054080;28;20452;-70
2022/08/25 03:00:40;;;;;;;14.07;12.70;;;;;;;;;;5040572;28;20466;-71
2022/08/25 03:03:08;;;;;;;12.93;11.60;;;;;;;;;;5053731;28;20431;-71
2022/08/25 03:05:35;;;;;;;15.50;13.77;;;;;;;;;;5037113;28;20428;-71
2022/08/25 03:08:02;;;;;;;14.47;12.57;;;;;;;;;;5053720;28;20796;-71
2022/08/25 03:10:28;;;;;;;14.50;13.00;;;;;;;;;;5071533;28;20461;-70
2022/08/25 03:12:55;;;;;;;14.53;13.23;;;;;;;;;;5053335;28;20792;-70
2022/08/25 03:15:24;;;;;;;16.70;12.50;;;;;;;;;;5071480;28;20424;-70
2022/08/25 03:17:51;;;;;;;15.10;13.70;;;;;;;;;;5037294;28;20781;-71
2022/08/25 03:20:17;;;;;;;14.27;12.50;;;;;;;;;;5053416;28;20440;-71
2022/08/25 03:22:44;;;;;;;16.80;14.53;;;;;;;;;;5053510;28;20459;-71
2022/08/25 03:27:56;;;;;;;14.50;12.90;;;;;;;;;;5071506;28;20405;-71
2022/08/25 03:30:22;;;;;;;13.73;12.50;;;;;;;;;;5071229;28;20498;-71
2022/08/25 03:32:49;;;;;;;14.23;12.93;;;;;;;;;;5053229;28;20471;-71
2022/08/25 03:35:16;;;;;;;14.77;13.20;;;;;;;;;;5053156;28;20536;-70
2022/08/25 03:37:42;;;;;;;14.10;12.70;;;;;;;;;;5066692;28;20846;-70
2022/08/25 03:40:10;;;;;;;13.97;12.63;;;;;;;;;;5028681;28;20444;-70
2022/08/25 03:42:42;;;;;;;13.83;12.53;;;;;;;;;;5053314;28;20448;-70
2022/08/25 03:45:12;;;;;;;14.67;12.50;;;;;;;;;;5053002;28;20443;-70
2022/08/25 03:47:39;;;;;;;13.03;11.80;;;;;;;;;;5053165;28;20474;-70
2022/08/25 03:50:07;;;;;;;13.30;11.90;;;;;;;;;;5055111;28;20502;-71
2022/08/25 03:52:34;;;;;;;15.57;11.70;;;;;;;;;;5057541;28;20428;-70
2022/08/25 03:55:09;;;;;;;14.63;13.10;;;;;;;;;;5043978;28;20806;-70
2022/08/25 03:57:35;;;;;;;14.03;12.67;;;;;;;;;;5075415;28;20983;-70
2022/08/25 04:00:04;;;;;;;13.67;11.80;;;;;;;;;;5057083;28;20494;-71
2022/08/25 04:02:38;;;;;;;14.97;13.37;;;;;;;;;;5075547;28;20511;-70
2022/08/25 04:05:05;;;;;;;13.97;12.27;;;;;;;;;;5040377;28;20939;-70
2022/08/25 04:07:31;;;;;;;14.60;12.53;;;;;;;;;;5056847;28;20535;-71
2022/08/25 04:09:58;;;;;;;14.87;13.20;;;;;;;;;;5074731;28;21001;-70
2022/08/25 04:12:24;;;;;;;14.60;13.10;;;;;;;;;;5056837;28;20440;-70
2022/08/25 04:14:51;;;;;;;12.97;11.00;;;;;;;;;;5040459;28;20489;-70
2022/08/25 04:17:17;;;;;;;15.17;13.47;;;;;;;;;;5056799;28;20552;-70
2022/08/25 04:19:44;;;;;;;14.03;12.00;;;;;;;;;;5056737;28;20460;-70
2022/08/25 04:22:10;;;;;;;12.83;11.53;;;;;;;;;;5040150;28;20519;-70
2022/08/25 04:24:38;;;;;;;16.83;12.77;;;;;;;;;;5056733;28;20424;-70
2022/08/25 04:27:05;;;;;;;18.37;12.93;;;;;;;;;;5056385;28;20432;-70
2022/08/25 04:29:33;;;;;;;15.47;13.33;;;;;;;;;;5057038;28;20460;-70
2022/08/25 04:32:00;;;;;;;14.43;12.93;;;;;;;;;;5040058;28;20428;-70
2022/08/25 04:34:26;;;;;;;15.43;13.73;;;;;;;;;;5056627;28;20427;-70
2022/08/25 04:36:57;;;;;;;14.80;13.13;;;;;;;;;;5056434;28;20456;-70
2022/08/25 04:39:24;;;;;;;17.57;13.50;;;;;;;;;;5042608;28;20539;-70
2022/08/25 04:41:50;;;;;;;13.93;12.50;;;;;;;;;;5056368;28;20494;-70
2022/08/25 04:44:17;;;;;;;16.90;13.87;;;;;;;;;;5036140;28;20491;-70
2022/08/25 04:46:44;;;;;;;13.93;12.53;;;;;;;;;;5036419;28;20435;-70
2022/08/25 04:49:10;;;;;;;18.17;15.33;;;;;;;;;;5056196;28;20562;-70
2022/08/25 04:51:38;;;;;;;14.20;12.83;;;;;;;;;;5056029;28;20447;-71
2022/08/25 04:54:06;;;;;;;15.40;13.80;;;;;;;;;;5039677;28;20433;-70
2022/08/25 04:56:33;;;;;;;16.33;14.27;;;;;;;;;;5073875;28;20510;-70
2022/08/25 04:59:01;;;;;;;18.63;16.73;;;;;;;;;;5073835;28;20901;-71
2022/08/25 05:01:28;;;;;;;21.30;17.77;;;;;;;;;;5055330;28;20462;-71
2022/08/25 05:03:56;;;;;;;18.67;16.50;;;;;;;;;;5056220;28;20448;-71
2022/08/25 05:06:23;;;;;;;20.07;16.40;;;;;;;;;;5073870;28;20489;-71
2022/08/25 05:08:50;;;;;;;18.57;15.50;;;;;;;;;;5039245;28;20817;-72
2022/08/25 05:11:17;;;;;;;17.47;15.57;;;;;;;;;;5055704;28;20873;-71
2022/08/25 05:13:45;;;;;;;19.23;15.97;;;;;;;;;;5073950;28;20420;-71
2022/08/25 05:16:17;;;;;;;17.73;14.20;;;;;;;;;;5056900;28;20455;-71
2022/08/25 05:18:44;;;;;;;16.33;14.00;;;;;;;;;;5039268;28;20432;-72
2022/08/25 05:21:15;;;;;;;13.90;12.40;;;;;;;;;;5039030;28;20437;-72
2022/08/25 05:23:42;;;;;;;14.57;12.67;;;;;;;;;;5039119;28;20463;-71
2022/08/25 05:26:13;;;;;;;14.40;13.07;;;;;;;;;;5055464;28;20433;-71
2022/08/25 05:28:46;;;;;;;16.30;11.80;;;;;;;;;;5073360;28;20424;-71
2022/08/25 05:31:13;;;;;;;15.93;13.30;;;;;;;;;;5038795;28;20475;-71
2022/08/25 05:33:40;;;;;;;16.13;13.30;;;;;;;;;;5056059;28;20554;-71
2022/08/25 05:36:08;;;;;;;17.67;13.50;;;;;;;;;;5055989;28;21186;-71
2022/08/25 05:38:36;;;;;;;13.87;12.43;;;;;;;;;;5043009;28;20869;-72
2022/08/25 05:41:05;;;;;;;14.20;12.90;;;;;;;;;;5072087;28;20470;-71
2022/08/25 05:43:32;;;;;;;18.63;12.63;;;;;;;;;;5073013;28;20474;-71
2022/08/25 05:45:58;;;;;;;19.50;14.30;;;;;;;;;;5055237;28;20436;-71
2022/08/25 05:48:25;;;;;;;13.07;11.90;;;;;;;;;;5055495;28;20443;-71
2022/08/25 05:50:53;;;;;;;16.77;14.97;;;;;;;;;;5055338;28;20487;-71
2022/08/25 05:53:21;;;;;;;16.77;15.07;;;;;;;;;;5023644;28;20446;-71
2022/08/25 05:55:49;;;;;;;15.73;14.10;;;;;;;;;;5034968;28;20481;-71
2022/08/25 05:58:15;;;;;;;14.90;13.40;;;;;;;;;;5048461;28;20433;-71
2022/08/25 06:00:42;;;;;;;16.10;14.23;;;;;;;;;;5038158;28;20543;-71
2022/08/25 06:03:09;;;;;;;16.43;14.73;;;;;;;;;;5055001;28;20518;-71
2022/08/25 06:05:36;;;;;;;16.10;14.50;;;;;;;;;;5056478;28;20511;-71
2022/08/25 06:08:02;;;;;;;16.87;15.07;;;;;;;;;;5078157;28;20429;-72
2022/08/25 06:10:29;;;;;;;16.43;14.17;;;;;;;;;;5056237;28;20445;-72
2022/08/25 06:12:56;;;;;;;18.33;15.87;;;;;;;;;;5053738;28;20433;-72
2022/08/25 06:15:24;;;;;;;23.73;15.30;;;;;;;;;;5054959;28;20429;-71
2022/08/25 06:17:51;;;;;;;19.17;16.10;;;;;;;;;;5054250;28;20479;-71
2022/08/25 06:20:22;;;;;;;19.40;13.83;;;;;;;;;;5054494;28;20800;-71
2022/08/25 06:22:51;;;;;;;17.00;15.30;;;;;;;;;;5038211;28;20535;-71
2022/08/25 06:25:20;;;;;;;18.87;16.97;;;;;;;;;;5072203;28;20516;-72
2022/08/25 06:27:47;;;;;;;16.80;14.43;;;;;;;;;;5054166;28;20859;-72
2022/08/25 06:30:15;;;;;;;18.03;16.33;;;;;;;;;;5034371;28;20453;-71
2022/08/25 06:32:42;;;;;;;15.30;13.80;;;;;;;;;;5054177;28;20478;-71
2022/08/25 06:35:10;;;;;;;16.73;14.40;;;;;;;;;;5037682;28;20936;-71
2022/08/25 06:37:37;;;;;;;15.17;13.67;;;;;;;;;;5071917;28;20529;-71
2022/08/25 06:40:05;;;;;;;15.70;14.20;;;;;;;;;;5026664;28;20544;-71
2022/08/25 06:42:32;;;;;;;14.97;13.47;;;;;;;;;;5069738;28;20807;-71
2022/08/25 06:45:00;;;;;;;16.10;14.60;;;;;;;;;;5035931;28;20460;-71
2022/08/25 06:47:26;;;;;;;15.67;14.23;;;;;;;;;;5048976;28;20486;-71
2022/08/25 06:49:53;;;;;;;15.87;14.37;;;;;;;;;;5025826;28;20465;-71
2022/08/25 06:52:19;;;;;;;22.80;16.10;;;;;;;;;;5017725;28;20453;-74
2022/08/25 06:54:47;;;;;;;20.17;18.17;;;;;;;;;;5046255;28;20432;-74
2022/08/25 06:57:14;;;;;;;21.67;19.60;;;;;;;;;;5037288;28;20460;-74
2022/08/25 06:59:41;;;;;;;21.03;18.43;;;;;;;;;;5036879;28;20457;-74
2022/08/25 07:02:08;;;;;;;20.60;18.30;;;;;;;;;;5037387;28;20437;-74
2022/08/25 07:04:35;;;;;;;25.17;19.80;;;;;;;;;;5071826;28;20431;-74
2022/08/25 07:07:02;;;;;;;20.13;17.93;;;;;;;;;;5053510;28;20498;-75
2022/08/25 07:09:29;;;;;;;20.37;17.97;;;;;;;;;;5036990;28;20518;-75
2022/08/25 07:11:55;;;;;;;19.87;17.90;;;;;;;;;;5057287;28;20813;-75
2022/08/25 07:14:22;;;;;;;20.23;18.33;;;;;;;;;;5073181;28;20797;-74
2022/08/25 07:16:49;;;;;;;20.90;18.90;;;;;;;;;;5053634;28;20453;-74
2022/08/25 07:19:19;;;;;;;19.60;17.60;;;;;;;;;;5071728;28;20452;-74
2022/08/25 07:21:48;;;;;;;20.00;17.90;;;;;;;;;;5053843;28;20436;-74
2022/08/25 07:24:16;;;;;;;19.63;17.83;;;;;;;;;;5072639;28;20409;-74
2022/08/25 07:26:45;;;;;;;20.40;18.33;;;;;;;;;;5053470;28;20428;-74
2022/08/25 07:29:16;;;;;;;19.90;17.00;;;;;;;;;;5053568;28;20506;-74
2022/08/25 07:31:43;;;;;;;20.30;17.30;;;;;;;;;;5041722;28;20442;-75
2022/08/25 07:37:02;;;;;;;19.13;16.97;;;;;;;;;;5078086;28;20460;-74
2022/08/25 07:39:32;;;;;;;18.43;16.67;;;;;;;;;;5065723;28;20492;-74
2022/08/25 07:42:02;;;;;;;16.90;15.20;;;;;;;;;;5074008;28;20440;-75
2022/08/25 07:44:37;;;;;;;19.90;18.00;;;;;;;;;;5041981;28;20846;-75
2022/08/25 07:47:05;;;;;;;16.93;15.40;;;;;;;;;;5038609;28;20475;-74
2022/08/25 07:49:32;;;;;;;16.77;15.10;;;;;;;;;;5054343;28;20496;-74
2022/08/25 07:52:02;;;;;;;19.07;17.03;;;;;;;;;;5058546;28;20494;-74
2022/08/25 07:54:35;;;;;;;19.47;17.47;;;;;;;;;;5077789;28;20435;-74
2022/08/25 07:57:04;;;;;;;17.20;15.40;;;;;;;;;;5056819;28;20490;-74
2022/08/25 07:59:31;;;;;;;17.33;15.83;;;;;;;;;;5056590;28;20473;-74
2022/08/25 08:02:06;;;;;;;20.13;16.40;;;;;;;;;;5054948;28;20467;-75
2022/08/25 08:04:34;;;;;;;17.80;15.43;;;;;;;;;;5056749;28;20440;-74
2022/08/25 08:07:01;;;;;;;18.83;16.83;;;;;;;;;;5052846;28;20444;-75
2022/08/25 08:09:29;;;;;;;16.27;14.77;;;;;;;;;;5053178;28;20475;-75
2022/08/25 08:11:56;;;;;;;18.47;16.83;;;;;;;;;;5038620;28;20864;-74
2022/08/25 08:14:23;;;;;;;17.30;15.20;;;;;;;;;;5038525;28;20440;-74
2022/08/25 08:16:49;;;;;;;18.73;16.90;;;;;;;;;;5053946;28;20503;-75
2022/08/25 08:19:16;;;;;;;15.10;13.70;;;;;;;;;;5072200;28;20445;-75
2022/08/25 08:21:49;;;;;;;17.20;15.33;;;;;;;;;;5037585;28;20539;-74
2022/08/25 08:24:17;;;;;;;18.13;16.53;;;;;;;;;;5075621;28;20420;-74
2022/08/25 08:27:07;;;;;;;15.50;14.10;;;;;;;;;;5058405;28;20788;-74
2022/08/25 08:29:34;;;;;;;16.23;14.70;;;;;;;;;;5018636;28;20457;-74
2022/08/25 08:32:02;;;;;;;16.80;15.30;;;;;;;;;;5044573;28;20535;-74
2022/08/25 08:34:31;;;;;;;17.73;15.83;;;;;;;;;;5053594;28;21272;-75
2022/08/25 08:36:58;;;;;;;16.40;14.40;;;;;;;;;;5038103;28;20464;-74
2022/08/25 08:39:25;;;;;;;16.60;15.10;;;;;;;;;;5039977;28;20476;-74
2022/08/25 08:42:17;;;;;;;16.27;14.73;;;;;;;;;;5056616;28;20471;-74
2022/08/25 08:44:43;;;;;;;15.03;13.60;;;;;;;;;;5056661;28;20791;-74
2022/08/25 08:47:13;;;;;;;16.77;15.17;;;;;;;;;;5039582;28;20443;-75
2022/08/25 08:49:47;;;;;;;16.13;14.53;;;;;;;;;;5055783;28;20482;-75
2022/08/25 08:52:16;;;;;;;21.77;16.00;;;;;;;;;;5056661;28;20443;-75
2022/08/25 08:54:43;;;;;;;17.80;16.20;;;;;;;;;;5074182;28;20416;-75
2022/08/25 08:57:14;;;;;;;16.63;14.80;;;;;;;;;;5056343;28;20467;-75
2022/08/25 09:00:01;;;;;;;15.67;14.27;;;;;;;;;;5056174;28;20955;-75
2022/08/25 09:02:32;;;;;;;14.83;13.43;;;;;;;;;;5056169;28;20471;-75
2022/08/25 09:05:19;;;;;;;14.80;13.30;;;;;;;;;;5056710;28;20486;-75
2022/08/25 09:07:51;;;;;;;13.67;12.43;;;;;;;;;;5040815;28;20428;-75
2022/08/25 09:10:39;;;;;;;13.90;12.67;;;;;;;;;;5028564;28;20522;-75
2022/08/25 09:13:23;;;;;;;16.83;12.97;;;;;;;;;;5056052;28;20440;-75
2022/08/25 09:19:24;;;;;;;13.17;11.87;;;;;;;;;;5055724;28;20507;-75
2022/08/25 09:21:51;;;;;;;14.23;12.90;;;;;;;;;;5055034;28;20902;-75
2022/08/25 09:24:34;;;;;;;14.03;12.73;;;;;;;;;;5080840;28;20421;-75
2022/08/25 09:27:08;;;;;;;13.10;11.90;;;;;;;;;;5061383;28;20436;-76
2022/08/25 09:30:01;;;;;;;14.20;11.90;;;;;;;;;;5055931;28;20456;-75
2022/08/25 09:32:33;;;;;;;12.67;11.57;;;;;;;;;;5037596;28;20446;-75
2022/08/25 09:35:02;;;;;;;13.93;12.30;;;;;;;;;;5047698;28;20434;-75
2022/08/25 09:37:29;;;;;;;13.57;12.47;;;;;;;;;;5050863;28;20464;-75
2022/08/25 09:39:57;;;;;;;13.30;11.93;;;;;;;;;;5039032;28;20455;-74
2022/08/25 09:42:44;;;;;;;11.33;10.20;;;;;;;;;;5038434;28;20436;-75
2022/08/25 09:45:15;;;;;;;10.70;9.70;;;;;;;;;;5055072;28;20428;-75
2022/08/25 09:47:44;;;;;;;13.07;9.57;;;;;;;;;;5037937;28;20452;-73
2022/08/25 09:50:17;;;;;;;10.90;9.77;;;;;;;;;;5055163;28;20499;-73
2022/08/25 09:52:44;;;;;;;11.40;9.10;;;;;;;;;;5055375;28;20467;-73
2022/08/25 09:55:12;;;;;;;8.93;8.13;;;;;;;;;;5055383;28;20429;-73
2022/08/25 09:57:43;;;;;;;9.80;8.80;;;;;;;;;;5055106;28;20537;-76
2022/08/25 10:00:22;;;;;;;9.43;8.63;;;;;;;;;;5054992;28;20479;-76
2022/08/25 10:03:08;;;;;;;8.40;7.70;;;;;;;;;;5055262;28;20788;-76
2022/08/25 10:05:38;;;;;;;9.67;8.77;;;;;;;;;;5055033;28;20432;-75
2022/08/25 10:08:10;;;;;;;10.87;9.77;;;;;;;;;;5038148;28;20476;-75
2022/08/25 10:10:43;;;;;;;13.13;9.73;;;;;;;;;;5055524;28;20541;-76
2022/08/25 10:13:17;;;;;;;9.10;8.40;;;;;;;;;;5054979;28;20499;-75
2022/08/25 10:16:02;;;;;;;11.27;8.93;;;;;;;;;;5055355;28;20478;-76
2022/08/25 10:18:29;;;;;;;10.03;9.23;;;;;;;;;;5054914;28;20494;-75
2022/08/25 10:21:11;;;;;;;9.73;8.93;;;;;;;;;;5039546;28;20445;-76
2022/08/25 10:23:51;;;;;;;10.43;9.53;;;;;;;;;;5055464;28;20429;-75
2022/08/25 10:26:32;;;;;;;12.23;9.60;;;;;;;;;;5057289;28;20428;-75
2022/08/25 10:29:03;;;;;;;9.30;8.50;;;;;;;;;;5057582;28;20456;-75
2022/08/25 10:31:43;;;;;;;10.17;9.23;;;;;;;;;;5062881;28;20481;-76
2022/08/25 10:34:40;;;;;;;12.33;9.50;;;;;;;;;;5065067;28;20431;-75
2022/08/25 10:37:16;;;;;;;9.03;8.43;;;;;;;;;;5052020;28;21002;-76
2022/08/25 10:40:18;;;;;;;9.80;8.80;;;;;;;;;;5064322;28;20441;-74
2022/08/25 10:43:40;;;;;;;8.63;7.90;;;;;;;;;;5060650;28;20790;-75
2022/08/25 10:46:09;;;;;;;12.20;8.87;;;;;;;;;;5059791;28;20412;-75
2022/08/25 10:48:48;;;;;;;10.10;9.20;;;;;;;;;;5053983;28;20941;-75
2022/08/25 10:51:27;;;;;;;11.00;8.90;;;;;;;;;;5053759;28;20472;-76
2022/08/25 10:53:54;;;;;;;8.57;7.87;;;;;;;;;;5037057;28;20458;-76
2022/08/25 10:56:21;;;;;;;12.03;9.97;;;;;;;;;;5053609;28;20436;-76
2022/08/25 10:59:06;;;;;;;9.63;8.70;;;;;;;;;;5036900;28;20556;-76
2022/08/25 11:01:41;;;;;;;10.20;9.03;;;;;;;;;;5054111;28;20810;-76
2022/08/25 11:04:10;;;;;;;9.20;8.50;;;;;;;;;;5053972;28;20433;-76
2022/08/25 11:06:44;;;;;;;11.10;9.43;;;;;;;;;;5054026;28;20843;-75
2022/08/25 11:09:18;;;;;;;11.20;10.13;;;;;;;;;;5053807;28;20460;-75
2022/08/25 11:11:45;;;;;;;9.90;9.10;;;;;;;;;;5053906;28;20882;-75
2022/08/25 11:14:18;;;;;;;10.30;9.40;;;;;;;;;;5037275;28;20490;-76
2022/08/25 11:16:56;;;;;;;10.70;9.50;;;;;;;;;;5054152;28;20436;-75
2022/08/25 11:19:26;;;;;;;11.40;10.20;;;;;;;;;;5053944;28;20468;-75
2022/08/25 11:22:02;;;;;;;15.90;10.23;;;;;;;;;;5037014;28;20420;-75
2022/08/25 11:24:35;;;;;;;10.00;9.10;;;;;;;;;;5053960;28;20535;-75
2022/08/25 11:27:03;;;;;;;10.10;9.30;;;;;;;;;;5053566;28;20421;-75
2022/08/25 11:29:32;;;;;;;10.37;9.37;;;;;;;;;;5053497;28;20456;-76
2022/08/25 11:32:00;;;;;;;12.10;10.83;;;;;;;;;;5037178;28;20432;-76
2022/08/25 11:34:29;;;;;;;10.93;10.03;;;;;;;;;;5052680;28;20506;-75
2022/08/25 11:37:07;;;;;;;10.37;9.37;;;;;;;;;;5053355;28;20450;-75
2022/08/25 11:39:43;;;;;;;10.03;9.03;;;;;;;;;;5038012;28;20508;-75
2022/08/25 11:42:30;;;;;;;11.77;9.60;;;;;;;;;;5071617;28;20420;-75
2022/08/25 11:45:18;;;;;;;10.70;9.63;;;;;;;;;;5036897;28;20982;-75
2022/08/25 11:48:03;;;;;;;10.60;9.60;;;;;;;;;;5053264;28;20523;-75
2022/08/25 11:50:33;;;;;;;13.13;10.70;;;;;;;;;;5053833;28;20471;-75
2022/08/25 11:53:10;;;;;;;11.77;10.50;;;;;;;;;;5053248;28;20527;-75
2022/08/25 11:55:37;;;;;;;12.80;10.20;;;;;;;;;;5071081;28;20462;-76
2022/08/25 11:58:23;;;;;;;16.30;11.60;;;;;;;;;;5053175;28;20465;-76
2022/08/25 12:00:51;;;;;;;11.23;9.23;;;;;;;;;;5027979;28;20484;-75
2022/08/25 12:03:33;;;;;;;13.40;11.03;;;;;;;;;;5066429;28;20423;-75
2022/08/25 12:06:12;;;;;;;14.43;8.90;;;;;;;;;;5053346;28;20467;-75
2022/08/25 12:08:50;;;;;;;11.10;9.03;;;;;;;;;;5053190;28;20460;-76
2022/08/25 12:11:36;;;;;;;17.13;9.63;;;;;;;;;;5055960;28;20839;-75
2022/08/25 12:14:27;;;;;;;15.30;10.90;;;;;;;;;;5057213;28;20422;-75
2022/08/25 12:16:53;;;;;;;13.80;10.60;;;;;;;;;;5052082;28;20448;-74
2022/08/25 12:19:33;;;;;;;13.37;9.40;;;;;;;;;;5056700;28;20468;-75
2022/08/25 12:22:02;;;;;;;12.83;10.10;;;;;;;;;;5056581;28;20436;-75
2022/08/25 12:24:41;;;;;;;16.03;9.30;;;;;;;;;;5074878;28;20416;-75
2022/08/25 12:27:37;;;;;;;12.10;9.03;;;;;;;;;;5057933;28;20431;-75
2022/08/25 12:30:17;;;;;;;9.40;8.53;;;;;;;;;;5074606;28;20441;-76
2022/08/25 12:33:02;;;;;;;9.70;8.73;;;;;;;;;;5056546;28;20432;-75
2022/08/25 12:35:28;;;;;;;9.47;8.23;;;;;;;;;;5056472;28;20429;-75
2022/08/25 12:38:09;;;;;;;9.97;9.07;;;;;;;;;;5056217;28;20460;-75
2022/08/25 12:40:42;;;;;;;11.37;7.83;;;;;;;;;;5056335;28;20455;-75
2022/08/25 12:43:31;;;;;;;10.27;9.40;;;;;;;;;;5057661;28;20468;-74
2022/08/25 12:46:19;;;;;;;12.43;9.73;;;;;;;;;;5074659;28;20427;-75
2022/08/25 12:48:56;;;;;;;11.20;10.10;;;;;;;;;;5055859;28;20539;-76
2022/08/25 12:51:25;;;;;;;10.67;8.87;;;;;;;;;;5039377;28;20440;-76
2022/08/25 12:53:53;;;;;;;9.20;8.40;;;;;;;;;;5074057;28;20519;-76
2022/08/25 12:56:19;;;;;;;9.40;7.93;;;;;;;;;;5039409;28;20490;-75
2022/08/25 12:58:54;;;;;;;10.60;8.20;;;;;;;;;;5055515;28;20495;-75
2022/08/25 13:01:42;;;;;;;9.37;8.30;;;;;;;;;;5040412;28;20433;-76
2022/08/25 13:04:12;;;;;;;10.70;8.40;;;;;;;;;;5055996;28;20944;-75
2022/08/25 13:06:48;;;;;;;10.80;8.60;;;;;;;;;;5055655;28;20428;-75
2022/08/25 13:09:33;;;;;;;10.10;8.97;;;;;;;;;;5073895;28;20479;-76
2022/08/25 13:12:04;;;;;;;8.47;7.63;;;;;;;;;;5056401;28;20515;-75
2022/08/25 13:14:33;;;;;;;9.10;8.20;;;;;;;;;;5055626;28;20947;-77
2022/08/25 13:17:04;;;;;;;9.40;8.60;;;;;;;;;;5056154;28;20504;-76
2022/08/25 13:19:31;;;;;;;12.87;8.30;;;;;;;;;;5055612;28;20476;-74
2022/08/25 13:22:12;;;;;;;10.33;9.20;;;;;;;;;;5055074;28;20474;-74
2022/08/25 13:24:43;;;;;;;9.60;8.70;;;;;;;;;;5073480;28;20448;-74
2022/08/25 13:27:18;;;;;;;8.93;8.17;;;;;;;;;;5038902;28;20429;-74
2022/08/25 13:29:53;;;;;;;8.00;7.33;;;;;;;;;;5055483;28;20543;-74
2022/08/25 13:32:33;;;;;;;16.07;8.20;;;;;;;;;;5073422;28;20486;-74
2022/08/25 13:35:16;;;;;;;9.47;8.57;;;;;;;;;;5055152;28;20957;-75
2022/08/25 13:37:44;;;;;;;10.43;9.53;;;;;;;;;;5038867;28;20962;-75
2022/08/25 13:40:21;;;;;;;10.03;8.10;;;;;;;;;;5038463;28;20480;-74
2022/08/25 13:42:57;;;;;;;8.30;7.50;;;;;;;;;;5039906;28;20420;-74
2022/08/25 13:45:27;;;;;;;8.97;8.10;;;;;;;;;;5036635;28;20421;-74
2022/08/25 13:47:57;;;;;;;8.30;7.50;;;;;;;;;;5038916;28;20528;-76
2022/08/25 13:50:24;;;;;;;9.60;6.70;;;;;;;;;;5054685;28;20502;-75
2022/08/25 13:53:02;;;;;;;8.60;7.77;;;;;;;;;;5038556;28;20424;-75
2022/08/25 13:55:35;;;;;;;13.33;8.37;;;;;;;;;;5072780;28;20417;-75
2022/08/25 13:58:22;;;;;;;9.90;8.40;;;;;;;;;;5072656;28;20551;-75
2022/08/25 14:01:06;;;;;;;9.40;8.10;;;;;;;;;;5072658;28;20444;-74
2022/08/25 14:03:54;;;;;;;8.70;7.83;;;;;;;;;;5034427;28;20449;-74
2022/08/25 14:06:26;;;;;;;9.30;7.83;;;;;;;;;;5050764;28;20421;-76
2022/08/25 14:08:59;;;;;;;12.17;8.10;;;;;;;;;;5037916;28;20438;-76
2022/08/25 14:11:33;;;;;;;8.50;7.70;;;;;;;;;;5054786;28;20428;-76
2022/08/25 14:14:01;;;;;;;9.17;7.47;;;;;;;;;;5054430;28;21031;-76
2022/08/25 14:16:31;;;;;;;15.83;8.93;;;;;;;;;;5055104;28;20424;-74
2022/08/25 14:19:00;;;;;;;12.00;8.17;;;;;;;;;;5037649;28;20525;-74
2022/08/25 14:21:28;;;;;;;8.67;7.73;;;;;;;;;;5054516;28;20431;-74
2022/08/25 14:23:55;;;;;;;17.27;8.80;;;;;;;;;;5054372;28;20478;-75
2022/08/25 14:26:22;;;;;;;8.13;7.20;;;;;;;;;;5037855;28;20432;-74
2022/08/25 14:28:52;;;;;;;11.93;7.23;;;;;;;;;;5037995;28;20524;-74
2022/08/25 14:31:32;;;;;;;11.30;8.87;;;;;;;;;;5054102;28;21019;-76
2022/08/25 14:34:04;;;;;;;12.83;7.13;;;;;;;;;;5053388;28;20429;-74
2022/08/25 14:36:32;;;;;;;9.67;8.27;;;;;;;;;;5053967;28;20997;-76
2022/08/25 14:38:59;;;;;;;12.07;9.07;;;;;;;;;;5071925;28;20882;-75
2022/08/25 14:41:26;;;;;;;15.37;8.97;;;;;;;;;;5072036;28;20417;-76
2022/08/25 14:43:53;;;;;;;10.23;8.80;;;;;;;;;;5053949;28;21004;-76
2022/08/25 14:46:21;;;;;;;11.60;8.23;;;;;;;;;;5053780;28;20459;-74
2022/08/25 14:48:53;;;;;;;9.93;9.03;;;;;;;;;;5037470;28;20436;-74
2022/08/25 14:51:21;;;;;;;14.37;7.80;;;;;;;;;;5054433;28;20433;-74
2022/08/25 14:53:47;;;;;;;11.27;8.23;;;;;;;;;;5053502;28;20932;-74
2022/08/25 14:56:14;;;;;;;8.73;7.83;;;;;;;;;;5037409;28;20472;-74
2022/08/25 14:58:43;;;;;;;12.83;6.83;;;;;;;;;;5053897;28;20483;-76